createdAt,value
2018-06-14T00:01:01.594Z,17.00
2018-06-14T00:03:31.352Z,17.00
2018-06-14T00:06:01.184Z,16.90
2018-06-14T00:08:31.571Z,17.00
2018-06-14T00:11:01.893Z,16.90
2018-06-14T00:13:31.625Z,16.90
2018-06-14T00:16:01.428Z,16.90
2018-06-14T00:18:31.240Z,16.80
2018-06-14T00:21:01.123Z,16.80
2018-06-14T00:23:30.927Z,16.60
2018-06-14T00:26:00.713Z,16.60
2018-06-14T00:28:30.666Z,16.60
2018-06-14T00:31:01.127Z,16.60
2018-06-14T00:33:30.859Z,16.60
2018-06-14T00:36:01.241Z,16.50
2018-06-14T00:38:31.020Z,16.40
2018-06-14T00:41:00.849Z,16.40
2018-06-14T00:43:31.072Z,16.40
2018-06-14T00:46:00.969Z,16.40
2018-06-14T00:48:30.740Z,16.50
2018-06-14T00:51:00.542Z,16.50
2018-06-14T00:53:30.279Z,16.50
2018-06-14T00:56:00.062Z,16.40
2018-06-14T00:58:29.842Z,16.40
2018-06-14T01:00:59.611Z,16.40
2018-06-14T01:03:29.421Z,16.40
2018-06-14T01:05:59.173Z,16.40
2018-06-14T01:08:29.244Z,16.40
2018-06-14T01:10:59.241Z,16.40
2018-06-14T01:13:29.115Z,16.50
2018-06-14T01:15:58.869Z,16.50
2018-06-14T01:18:28.702Z,16.50
2018-06-14T01:20:58.541Z,16.50
2018-06-14T01:23:28.440Z,16.40
2018-06-14T01:25:58.222Z,16.40
2018-06-14T01:28:28.012Z,16.30
2018-06-14T01:30:57.749Z,16.30
2018-06-14T01:33:27.524Z,16.30
2018-06-14T01:35:57.296Z,16.30
2018-06-14T01:38:27.477Z,16.40
2018-06-14T01:40:57.556Z,16.40
2018-06-14T01:43:27.356Z,16.30
2018-06-14T01:45:57.104Z,16.40
2018-06-14T01:48:26.942Z,16.40
2018-06-14T01:50:56.719Z,16.40
2018-06-14T01:53:26.482Z,16.40
2018-06-14T01:55:56.264Z,16.40
2018-06-14T01:58:29.331Z,16.40
2018-06-14T02:01:00.221Z,16.30
2018-06-14T02:03:30.335Z,16.30
2018-06-14T02:06:00.122Z,16.30
2018-06-14T02:08:29.917Z,16.30
2018-06-14T02:10:59.788Z,16.30
2018-06-14T02:13:29.573Z,16.30
2018-06-14T02:15:59.850Z,16.30
2018-06-14T02:18:29.598Z,16.30
2018-06-14T02:20:59.397Z,16.20
2018-06-14T02:23:29.128Z,16.20
2018-06-14T02:25:58.948Z,16.00
2018-06-14T02:28:28.768Z,16.00
2018-06-14T02:30:58.701Z,16.00
2018-06-14T02:33:28.696Z,16.10
2018-06-14T02:35:58.535Z,16.10
2018-06-14T02:38:28.408Z,16.20
2018-06-14T02:40:58.212Z,16.20
2018-06-14T02:43:28.023Z,16.20
2018-06-14T02:45:58.440Z,16.20
2018-06-14T02:48:28.189Z,16.20
2018-06-14T02:50:57.946Z,16.10
2018-06-14T02:53:28.737Z,16.10
2018-06-14T02:55:58.544Z,16.20
2018-06-14T02:58:28.337Z,16.10
2018-06-14T03:00:58.089Z,16.00
2018-06-14T03:03:27.846Z,16.00
2018-06-14T03:05:57.605Z,16.00
2018-06-14T03:08:27.365Z,16.00
2018-06-14T03:10:57.231Z,16.00
2018-06-14T03:13:27.025Z,16.00
2018-06-14T03:15:56.789Z,16.00
2018-06-14T03:20:56.314Z,16.00
2018-06-14T03:23:26.089Z,15.90
2018-06-14T03:25:57.137Z,15.70
2018-06-14T03:28:26.990Z,15.70
2018-06-14T03:30:56.803Z,15.70
2018-06-14T03:33:26.560Z,15.70
2018-06-14T03:35:56.328Z,15.70
2018-06-14T03:38:26.848Z,15.80
2018-06-14T03:40:56.716Z,15.90
2018-06-14T03:43:26.556Z,16.00
2018-06-14T03:45:56.393Z,15.90
2018-06-14T03:48:26.148Z,15.70
2018-06-14T03:50:55.943Z,15.50
2018-06-14T03:53:25.773Z,15.50
2018-06-14T03:55:55.532Z,15.60
2018-06-14T03:58:25.626Z,15.70
2018-06-14T04:00:55.411Z,15.90
2018-06-14T04:03:25.175Z,15.90
2018-06-14T04:05:54.968Z,15.70
2018-06-14T04:08:24.732Z,15.70
2018-06-14T04:10:54.512Z,15.70
2018-06-14T04:13:24.560Z,15.60
2018-06-14T04:15:54.590Z,15.60
2018-06-14T04:18:24.555Z,15.50
2018-06-14T04:20:54.680Z,15.60
2018-06-14T04:23:24.579Z,15.60
2018-06-14T04:25:54.317Z,15.50
2018-06-14T04:28:24.423Z,15.60
2018-06-14T04:30:55.070Z,15.50
2018-06-14T04:33:24.871Z,15.30
2018-06-14T04:35:54.642Z,15.20
2018-06-14T04:38:24.422Z,15.10
2018-06-14T04:40:54.185Z,15.10
2018-06-14T04:43:23.938Z,14.90
2018-06-14T04:45:53.843Z,14.90
2018-06-14T04:48:24.392Z,14.90
2018-06-14T04:50:54.165Z,14.80
2018-06-14T04:53:23.920Z,14.90
2018-06-14T04:55:53.796Z,15.00
2018-06-14T04:58:23.621Z,15.20
2018-06-14T05:00:53.389Z,15.30
2018-06-14T05:03:23.153Z,15.40
2018-06-14T05:08:24.747Z,15.60
2018-06-14T05:10:55.484Z,15.70
2018-06-14T05:13:25.547Z,15.70
2018-06-14T05:15:56.439Z,15.70
2018-06-14T05:18:29.763Z,15.50
2018-06-14T05:20:59.801Z,15.40
2018-06-14T05:23:29.564Z,15.40
2018-06-14T05:26:00.115Z,15.50
2018-06-14T05:28:29.904Z,15.50
2018-06-14T05:30:59.666Z,15.40
2018-06-14T05:33:29.429Z,15.50
2018-06-14T05:36:00.217Z,15.50
2018-06-14T05:38:29.972Z,15.70
2018-06-14T05:40:59.736Z,15.80
2018-06-14T05:43:29.487Z,15.80
2018-06-14T05:45:59.273Z,15.90
2018-06-14T05:48:29.025Z,15.90
2018-06-14T05:50:58.792Z,16.00
2018-06-14T05:53:29.099Z,15.90
2018-06-14T05:55:58.976Z,15.70
2018-06-14T05:58:28.798Z,15.70
2018-06-14T06:00:58.628Z,15.90
2018-06-14T06:03:28.402Z,16.00
2018-06-14T06:05:58.764Z,16.10
2018-06-14T06:08:30.325Z,16.20
2018-06-14T06:11:00.227Z,16.20
2018-06-14T06:13:32.028Z,16.50
2018-06-14T06:16:02.156Z,16.70
2018-06-14T06:18:31.964Z,16.70
2018-06-14T06:21:01.767Z,16.60
2018-06-14T06:23:31.682Z,16.70
2018-06-14T06:26:01.472Z,16.70
2018-06-14T06:28:31.205Z,16.90
2018-06-14T06:31:01.076Z,16.80
2018-06-14T06:33:31.501Z,16.90
2018-06-14T06:36:01.216Z,17.00
2018-06-14T06:41:01.908Z,17.00
2018-06-14T06:43:35.279Z,17.10
2018-06-14T06:46:05.101Z,17.20
2018-06-14T06:48:35.756Z,17.20
2018-06-14T06:51:05.929Z,17.30
2018-06-14T06:53:35.770Z,17.40
2018-06-14T06:56:06.329Z,17.30
2018-06-14T06:58:36.159Z,17.40
2018-06-14T07:01:05.951Z,17.50
2018-06-14T07:03:35.762Z,17.40
2018-06-14T07:06:05.572Z,17.50
2018-06-14T07:11:04.590Z,17.40
2018-06-14T07:13:35.008Z,17.50
2018-06-14T07:16:05.816Z,17.60
2018-06-14T07:21:04.889Z,17.70
2018-06-14T07:23:34.671Z,17.90
2018-06-14T07:26:04.495Z,17.90
2018-06-14T07:28:34.253Z,18.10
2018-06-14T07:31:04.022Z,18.10
2018-06-14T07:33:34.096Z,18.10
2018-06-14T07:36:04.407Z,18.20
2018-06-14T07:38:34.173Z,18.20
2018-06-14T07:41:03.989Z,18.30
2018-06-14T07:43:33.807Z,18.60
2018-06-14T07:46:03.634Z,18.90
2018-06-14T07:48:33.457Z,19.10
2018-06-14T07:51:03.402Z,19.20
2018-06-14T07:53:33.211Z,19.10
2018-06-14T07:58:32.321Z,19.10
2018-06-14T08:01:02.083Z,19.10
2018-06-14T08:03:32.686Z,19.20
2018-06-14T08:06:02.476Z,19.30
2018-06-14T08:11:01.594Z,19.60
2018-06-14T08:13:31.394Z,19.80
2018-06-14T08:16:01.168Z,19.70
2018-06-14T08:18:31.088Z,19.60
2018-06-14T08:21:01.030Z,20.00
2018-06-14T08:23:31.219Z,20.50
2018-06-14T08:26:01.010Z,20.40
2018-06-14T08:31:00.152Z,20.40
2018-06-14T08:33:29.886Z,20.50
2018-06-14T08:35:59.665Z,20.50
2018-06-14T08:38:29.659Z,20.50
2018-06-14T08:40:59.469Z,20.40
2018-06-14T08:45:59.607Z,20.70
2018-06-14T08:48:29.421Z,21.50
2018-06-14T08:50:59.252Z,21.70
2018-06-14T08:53:29.009Z,21.50
2018-06-14T08:58:29.593Z,21.80
2018-06-14T09:00:59.401Z,22.00
2018-06-14T09:03:29.246Z,21.60
2018-06-14T09:05:59.091Z,21.80
2018-06-14T09:08:29.484Z,22.00
2018-06-14T09:10:59.313Z,22.30
2018-06-14T09:13:29.115Z,22.40
2018-06-14T09:15:58.872Z,22.80
2018-06-14T09:18:28.634Z,23.20
2018-06-14T09:20:58.454Z,22.80
2018-06-14T09:23:28.269Z,22.30
2018-06-14T09:25:58.013Z,22.40
2018-06-14T09:28:27.835Z,23.10
2018-06-14T09:30:57.643Z,24.10
2018-06-14T09:33:28.079Z,24.60
2018-06-14T09:35:57.972Z,25.50
2018-06-14T09:38:27.729Z,26.40
2018-06-14T09:40:57.504Z,27.10
2018-06-14T09:43:28.017Z,27.60
2018-06-14T09:45:57.788Z,28.60
2018-06-14T09:48:27.860Z,28.90
2018-06-14T09:50:57.641Z,28.90
2018-06-14T09:53:28.605Z,28.70
2018-06-14T09:55:58.600Z,29.30
2018-06-14T09:58:28.412Z,29.50
2018-06-14T10:03:27.464Z,30.60
2018-06-14T10:05:57.477Z,30.60
2018-06-14T10:10:57.301Z,30.40
2018-06-14T10:15:56.977Z,27.50
2018-06-14T10:18:26.781Z,27.40
2018-06-14T10:20:57.222Z,28.10
2018-06-14T10:23:26.993Z,28.30
2018-06-14T10:25:56.831Z,28.50
2018-06-14T10:28:27.327Z,27.90
2018-06-14T10:33:26.675Z,28.30
2018-06-14T10:35:56.665Z,28.60
2018-06-14T10:38:26.526Z,28.70
2018-06-14T10:40:56.908Z,29.20
2018-06-14T10:43:26.774Z,29.40
2018-06-14T10:45:56.526Z,29.80
2018-06-14T10:48:26.798Z,30.30
2018-06-14T10:50:57.320Z,29.10
2018-06-14T10:53:28.251Z,28.90
2018-06-14T10:55:58.019Z,29.50
2018-06-14T10:58:28.535Z,29.00
2018-06-14T11:00:58.353Z,29.20
2018-06-14T11:03:28.163Z,29.50
2018-06-14T11:05:58.816Z,29.60
2018-06-14T11:08:28.585Z,29.10
2018-06-14T11:10:58.425Z,27.60
2018-06-14T11:13:28.293Z,26.10
2018-06-14T11:15:58.158Z,25.20
2018-06-14T11:18:27.960Z,26.00
2018-06-14T11:20:57.772Z,25.50
2018-06-14T11:25:57.506Z,24.90
2018-06-14T11:28:27.329Z,24.30
2018-06-14T11:30:57.120Z,25.00
2018-06-14T11:33:27.001Z,25.30
2018-06-14T11:35:57.024Z,27.00
2018-06-14T11:38:26.900Z,28.10
2018-06-14T11:40:56.954Z,28.20
2018-06-14T11:43:27.421Z,27.80
2018-06-14T11:45:57.241Z,28.40
2018-06-14T11:48:27.153Z,28.90
2018-06-14T11:50:56.960Z,29.80
2018-06-14T11:53:27.779Z,30.30
2018-06-14T11:55:57.762Z,30.80
2018-06-14T11:58:29.145Z,29.90
2018-06-14T12:00:59.040Z,29.10
2018-06-14T12:03:28.818Z,29.00
2018-06-14T12:05:59.097Z,28.80
2018-06-14T12:08:29.347Z,28.70
2018-06-14T12:10:59.101Z,29.10
2018-06-14T12:13:29.824Z,28.90
2018-06-14T12:15:59.705Z,28.20
2018-06-14T12:18:29.533Z,27.40
2018-06-14T12:20:59.464Z,26.50
2018-06-14T12:23:29.632Z,25.70
2018-06-14T12:28:29.443Z,25.00
2018-06-14T12:30:59.736Z,24.90
2018-06-14T12:33:29.554Z,24.80
2018-06-14T13:15:35.497Z,24.90
2018-06-14T13:18:05.324Z,24.30
2018-06-14T13:20:35.085Z,24.00
2018-06-14T13:23:04.930Z,24.00
2018-06-14T13:25:35.385Z,23.80
2018-06-14T13:28:05.259Z,23.70
2018-06-14T13:30:35.077Z,23.80
2018-06-14T13:33:04.874Z,24.00
2018-06-14T13:35:34.768Z,24.20
2018-06-14T13:38:05.261Z,24.10
2018-06-14T13:40:35.089Z,24.10
2018-06-14T13:43:05.752Z,24.10
2018-06-14T13:45:42.141Z,23.90
2018-06-14T13:48:12.555Z,24.20
2018-06-14T13:50:42.603Z,24.20
2018-06-14T13:53:12.447Z,24.40
2018-06-14T13:55:42.247Z,24.60
2018-06-14T13:58:12.153Z,24.40
2018-06-14T14:00:42.083Z,24.50
2018-06-14T14:03:12.058Z,24.60
2018-06-14T14:05:41.904Z,24.50
2018-06-14T14:08:12.579Z,24.60
2018-06-14T14:10:42.470Z,24.60
2018-06-14T14:13:12.289Z,24.30
2018-06-14T14:15:42.918Z,24.10
2018-06-14T14:20:42.660Z,24.30
2018-06-14T14:25:41.697Z,24.30
2018-06-14T14:28:11.505Z,24.10
2018-06-14T14:30:41.902Z,24.00
2018-06-14T14:33:11.708Z,24.00
2018-06-14T14:35:41.529Z,24.10
2018-06-14T14:38:11.370Z,23.90
2018-06-14T14:40:41.249Z,24.00
2018-06-14T14:43:11.065Z,23.80
2018-06-14T14:45:40.876Z,23.70
2018-06-14T14:48:10.643Z,23.70
2018-06-14T14:50:40.450Z,23.50
2018-06-14T14:53:10.289Z,23.40
2018-06-14T14:55:40.086Z,23.60
2018-06-14T14:58:09.872Z,23.70
2018-06-14T15:00:39.661Z,23.60
2018-06-14T15:03:09.440Z,23.70
2018-06-14T15:05:39.236Z,23.70
2018-06-14T15:08:09.032Z,23.70
2018-06-14T15:10:39.639Z,23.30
2018-06-14T15:13:09.460Z,23.10
2018-06-14T15:18:08.497Z,23.00
2018-06-14T15:20:39.637Z,23.10
2018-06-14T15:23:09.436Z,22.90
2018-06-14T15:25:39.288Z,22.90
2018-06-14T15:28:09.671Z,22.90
2018-06-14T15:30:39.673Z,22.60
2018-06-14T15:33:09.460Z,22.40
2018-06-14T15:35:39.316Z,22.40
2018-06-14T15:38:09.128Z,22.50
2018-06-14T15:40:38.995Z,22.20
2018-06-14T15:43:08.853Z,21.90
2018-06-14T15:45:38.678Z,21.70
2018-06-14T15:48:08.541Z,21.60
2018-06-14T15:53:08.140Z,20.90
2018-06-14T15:56:07.726Z,20.60
2018-06-14T15:58:37.526Z,20.30
2018-06-14T16:03:36.948Z,20.00
2018-06-14T16:06:06.810Z,19.90
2018-06-14T16:08:36.686Z,19.90
2018-06-14T16:11:06.515Z,19.80
2018-06-14T16:13:36.305Z,19.80
2018-06-14T16:16:06.131Z,19.70
2018-06-14T16:18:35.995Z,19.60
2018-06-14T16:21:05.813Z,19.40
2018-06-14T16:23:35.630Z,19.30
2018-06-14T16:26:06.611Z,19.20
2018-06-14T16:28:36.674Z,18.90
2018-06-14T16:31:06.443Z,18.70
2018-06-14T16:33:36.986Z,18.60
2018-06-14T16:36:06.829Z,18.60
2018-06-14T16:38:36.823Z,18.70
2018-06-14T16:41:06.621Z,18.70
2018-06-14T16:43:36.536Z,18.60
2018-06-14T16:46:06.952Z,18.60
2018-06-14T16:48:36.674Z,18.50
2018-06-14T16:51:06.727Z,18.40
2018-06-14T16:53:36.715Z,18.50
2018-06-14T16:56:06.833Z,18.60
2018-06-14T16:58:37.244Z,18.50
2018-06-14T17:01:07.474Z,18.50
2018-06-14T17:03:37.894Z,18.50
2018-06-14T17:06:07.957Z,18.60
2018-06-14T17:08:37.833Z,18.70
2018-06-14T17:11:07.646Z,18.60
2018-06-14T17:13:37.470Z,18.50
2018-06-14T17:16:07.376Z,18.50
2018-06-14T17:18:37.156Z,18.50
2018-06-14T17:21:07.107Z,18.40
2018-06-14T17:23:37.001Z,18.50
2018-06-14T17:26:06.772Z,18.40
2018-06-14T17:28:36.651Z,18.20
2018-06-14T17:31:06.849Z,18.20
2018-06-14T17:33:37.846Z,18.30
2018-06-14T17:36:07.741Z,18.30
2018-06-14T17:38:38.192Z,18.40
2018-06-14T17:41:08.043Z,18.50
2018-06-14T17:43:37.781Z,18.40
2018-06-14T17:46:07.687Z,18.30
2018-06-14T17:48:37.436Z,18.40
2018-06-14T17:51:07.370Z,18.30
2018-06-14T17:53:37.260Z,18.30
2018-06-14T17:56:07.157Z,18.20
2018-06-14T17:58:37.625Z,18.20
2018-06-14T18:03:37.452Z,18.00
2018-06-14T18:06:08.022Z,18.10
2018-06-14T18:08:37.832Z,18.20
2018-06-14T18:11:07.867Z,18.30
2018-06-14T18:13:37.840Z,18.40
2018-06-14T18:16:07.845Z,18.60
2018-06-14T18:18:37.870Z,18.70
2018-06-14T18:21:07.776Z,18.60
2018-06-14T18:23:38.438Z,18.80
2018-06-14T18:26:08.410Z,18.90
2018-06-14T18:28:38.271Z,18.90
2018-06-14T18:31:08.094Z,19.10
2018-06-14T18:33:37.928Z,19.20
2018-06-14T18:38:38.317Z,19.10
2018-06-14T18:41:08.149Z,19.20
2018-06-14T18:43:38.146Z,19.10
2018-06-14T18:46:08.016Z,19.10
2018-06-14T18:48:37.901Z,19.10
2018-06-14T18:51:07.755Z,19.10
2018-06-14T18:56:08.072Z,19.10
2018-06-14T18:58:37.930Z,19.00
2018-06-14T19:03:37.342Z,18.80
2018-06-14T19:06:07.350Z,18.80
2018-06-14T19:08:37.272Z,18.70
2018-06-14T19:11:07.576Z,18.70
2018-06-14T19:16:06.758Z,18.90
2018-06-14T19:18:36.579Z,19.00
2018-06-14T19:21:07.041Z,19.00
2018-06-14T19:23:36.920Z,19.00
2018-06-14T19:26:06.847Z,19.10
2018-06-14T19:28:36.727Z,19.30
2018-06-14T19:31:06.773Z,19.30
2018-06-14T19:33:36.642Z,19.10
2018-06-14T19:36:06.606Z,19.00
2018-06-14T19:38:37.191Z,18.90
2018-06-14T19:41:07.086Z,18.90
2018-06-14T19:43:37.128Z,18.90
2018-06-14T19:46:07.145Z,18.90
2018-06-14T19:48:37.009Z,18.80
2018-06-14T19:51:07.590Z,18.70
2018-06-14T19:53:37.468Z,18.70
2018-06-14T19:56:07.439Z,18.50
2018-06-14T19:58:37.276Z,18.40
2018-06-14T20:01:07.261Z,18.50
2018-06-14T20:03:37.488Z,18.60
2018-06-14T20:06:08.014Z,18.90
2018-06-14T20:08:37.861Z,18.90
2018-06-14T20:11:07.920Z,18.90
2018-06-14T20:13:37.794Z,18.90
2018-06-14T20:18:36.998Z,19.00
2018-06-14T20:21:06.923Z,19.10
2018-06-14T20:23:37.352Z,19.10
2018-06-14T20:26:07.660Z,19.10
2018-06-14T20:28:38.067Z,19.10
2018-06-14T20:31:09.561Z,19.00
2018-06-14T20:36:08.984Z,19.40
2018-06-14T20:38:38.806Z,19.50
2018-06-14T20:41:08.908Z,19.50
2018-06-14T20:43:38.852Z,19.60
2018-06-14T20:48:38.127Z,19.50
2018-06-14T20:51:07.944Z,19.30
2018-06-14T20:53:37.822Z,19.20
2018-06-14T20:56:07.741Z,19.00
2018-06-14T20:58:37.540Z,19.20
2018-06-14T21:01:09.206Z,19.30
2018-06-14T21:03:39.321Z,19.30
2018-06-14T21:06:09.144Z,19.40
2018-06-14T21:08:42.146Z,19.50
2018-06-14T21:11:11.975Z,19.30
2018-06-14T21:13:41.855Z,19.30
2018-06-14T21:16:11.723Z,19.30
2018-06-14T21:18:41.548Z,19.30
2018-06-14T21:21:11.601Z,19.30
2018-06-14T21:23:41.486Z,19.30
2018-06-14T21:26:11.302Z,19.10
2018-06-14T21:28:41.122Z,19.00
2018-06-14T21:31:10.953Z,19.00
2018-06-14T21:33:41.604Z,19.20
2018-06-14T21:36:11.461Z,19.30
2018-06-14T21:38:41.376Z,19.50
2018-06-14T21:41:11.293Z,19.40
2018-06-14T21:43:41.316Z,19.40
2018-06-14T21:46:11.139Z,19.50
2018-06-14T21:48:41.147Z,19.50
2018-06-14T21:51:10.965Z,19.50
2018-06-14T21:56:10.113Z,19.40
2018-06-14T21:58:39.984Z,19.30
2018-06-14T22:03:46.039Z,18.70
2018-06-14T22:11:15.093Z,18.10
2018-06-14T22:13:45.010Z,18.00
2018-06-14T22:16:15.472Z,18.00
2018-06-14T22:18:45.334Z,18.10
2018-06-14T22:21:15.141Z,18.00
2018-06-14T22:23:45.165Z,18.00
2018-06-14T22:26:15.218Z,18.00
2018-06-14T22:33:54.981Z,17.70
2018-06-14T22:38:56.230Z,17.30
2018-06-14T22:41:26.094Z,17.10
2018-06-14T22:43:56.114Z,17.10
2018-06-14T22:46:26.515Z,17.00
2018-06-14T22:48:56.989Z,17.10
2018-06-14T22:51:34.487Z,17.20
2018-06-14T22:56:40.219Z,17.50
2018-06-14T22:59:10.083Z,17.50
2018-06-14T23:01:54.339Z,17.70
2018-06-14T23:04:30.755Z,17.70
2018-06-14T23:22:35.226Z,18.10
2018-06-14T23:25:05.094Z,18.20
2018-06-14T23:27:34.885Z,18.40
2018-06-14T23:30:04.821Z,18.60
2018-06-14T23:32:34.597Z,18.80
2018-06-14T23:35:04.597Z,18.80
2018-06-14T23:37:34.484Z,18.90
2018-06-14T23:40:05.391Z,18.90
2018-06-14T23:42:36.746Z,18.70
2018-06-14T23:45:07.238Z,18.70
2018-06-14T23:47:37.024Z,18.60
2018-06-14T23:50:07.823Z,18.80
2018-06-14T23:52:38.182Z,19.00
2018-06-14T23:55:07.985Z,19.00
2018-06-14T23:57:38.229Z,18.80
